Date,TemperatureHighF,TemperatureAvgF,TemperatureLowF,DewpointHighF,DewpointAvgF,DewpointLowF,HumidityHigh,HumidityAvg,HumidityLow,PressureMaxIn,PressureMinIn,WindSpeedMaxMPH,WindSpeedAvgMPH,GustSpeedMaxMPH,PrecipitationSumIn
2013-5-1,64.0,57.2,51.0,57.0,49.8,45.0,100,78,49,30.45,30.30,20,13,22,0.00
2013-5-2,64.0,53.9,48.0,56.0,51.7,48.0,100,93,61,30.46,30.34,16,8,18,0.00
2013-5-3,58.0,55.4,50.0,54.0,48.8,45.0,100,79,64,30.40,30.32,17,14,21,0.00
2013-5-4,64.0,54.6,49.0,52.0,49.6,47.0,100,84,59,30.35,30.21,23,13,25,0.00
2013-5-5,59.0,51.9,47.0,54.0,48.3,45.0,100,87,74,30.27,30.19,20,12,24,0.00
2013-5-6,61.0,54.6,50.0,61.0,54.6,50.0,100,100,100,30.20,30.09,21,16,23,0.00
2013-5-7,62.0,59.4,57.0,62.0,59.4,57.0,100,100,100,30.09,29.96,22,18,25,0.00
2013-5-8,63.0,59.2,56.0,63.0,59.2,56.0,100,100,100,30.03,29.96,14,7,15,0.00
2013-5-9,71.0,59.9,54.0,67.0,59.7,54.0,100,99,85,30.01,29.94,16,8,17,0.00
2013-5-10,72.0,63.1,61.0,70.0,60.6,-99.9,100,98,87,30.03,29.90,20,7,21,0.00
2013-5-11,76.0,66.3,63.0,69.0,64.3,-99.9,100,96,72,29.96,29.72,20,9,21,0.00
2013-5-12,64.0,61.2,57.0,64.0,52.5,38.0,100,76,41,30.03,29.75,24,15,28,0.00
2013-5-13,58.0,53.9,50.0,40.0,36.1,32.0,63,51,39,30.15,30.04,25,16,29,0.00
2013-5-14,60.0,53.8,45.0,51.0,40.2,34.0,79,60,45,30.22,30.08,17,10,18,0.00
2013-5-15,78.0,63.4,57.0,70.0,60.7,53.0,100,91,72,30.09,29.70,22,14,23,0.00
2013-5-16,79.0,71.8,73.0,69.0,48.2,-99.9,79,69,61,29.90,29.75,21,10,22,0.00
2013-5-17,75.0,69.1,65.0,68.0,55.8,-99.9,100,71,44,30.16,29.91,20,9,22,0.00
2013-5-18,66.0,62.6,59.0,64.0,60.9,56.0,100,94,75,30.26,30.18,18,13,21,0.00
2013-5-19,70.0,64.0,60.0,70.0,64.0,60.0,100,100,100,30.23,30.12,13,7,14,0.00
2013-5-20,71.0,68.1,66.0,71.0,68.1,66.0,100,100,100,30.14,30.01,16,11,16,0.00
2013-5-21,73.0,69.7,67.0,73.0,69.7,67.0,100,100,100,30.02,29.91,18,11,20,0.00
2013-5-22,71.0,69.7,69.0,71.0,69.7,69.0,100,100,100,29.96,29.88,17,13,18,0.00
2013-5-23,70.0,70.0,70.0,70.0,70.0,70.0,100,100,100,29.91,29.91,15,15,15,0.00
2013-5-24,66.0,65.5,65.0,66.0,65.5,65.0,100,100,100,29.77,29.77,24,14,6,0.00
2013-5-25,49.0,49.0,49.0,37.0,37.0,37.0,65,65,65,30.11,30.11,21,21,0,0.00
2013-5-26,53.0,37.9,53.0,39.0,-1.2,-99.9,57,40,54,30.19,30.15,17,17,21,0.00
2013-5-27,59.0,59.0,59.0,43.0,42.5,42.0,55,54,53,30.28,30.24,13,10,15,0.00
2013-5-28,65.0,64.5,64.0,65.0,64.2,63.0,100,99,95,30.20,30.17,15,12,16,0.00
2013-5-29,70.0,70.0,70.0,70.0,70.0,70.0,100,100,100,30.12,30.12,8,8,0,0.00
2013-5-30,72.0,72.0,72.0,70.0,70.0,70.0,92,92,92,0.00,40.00,7,7,0,0.00
2013-5-31,74.0,72.5,71.0,72.0,71.5,71.0,100,96,93,30.15,30.15,13,12,10,0.00